Time;durP1;ratioP1;P1;durP2;ratioP2;P2;SDS_P1;SDS_P2;PMS_P1;PMS_P2;Temp;Humidity;BMP_temperature;BMP_pressure;BME280_temperature;BME280_humidity;BME280_pressure;Samples;Min_cycle;Max_cycle;Signal;HPM_P1;HPM_P2
2021/03/01 00:01:36;;;;;;;14.70;9.57;;;3.40;99.90;;;0.28;100.00;102372.88;4982757;28;100312;-64
2021/03/01 00:04:03;;;;;;;14.40;8.90;;;3.20;99.90;;;0.34;100.00;102378.88;4982999;28;99961;-63
2021/03/01 00:06:29;;;;;;;14.23;8.80;;;3.00;99.90;;;0.50;100.00;102378.41;4981635;28;100941;-63
2021/03/01 00:08:56;;;;;;;16.50;10.20;;;3.30;99.90;;;0.37;100.00;102383.19;4981760;28;101039;-62
2021/03/01 00:11:22;;;;;;;14.47;9.03;;;3.30;99.90;;;0.60;100.00;102390.44;4982388;28;100250;-61
2021/03/01 00:13:49;;;;;;;13.73;9.20;;;3.20;99.90;;;0.49;100.00;102385.50;4982829;28;100446;-62
2021/03/01 00:16:16;;;;;;;18.20;9.67;;;3.40;99.90;;;0.33;100.00;102392.06;4982088;28;101395;-63
2021/03/01 00:18:43;;;;;;;14.03;9.73;;;3.40;99.90;;;0.45;100.00;102390.88;4982277;28;100413;-63
2021/03/01 00:21:10;;;;;;;14.03;8.50;;;3.30;99.90;;;0.40;100.00;102388.34;4982006;28;99952;-61
2021/03/01 00:23:36;;;;;;;15.47;9.13;;;3.30;99.90;;;0.50;100.00;102388.94;4983130;28;99994;-60
2021/03/01 00:26:03;;;;;;;13.97;9.30;;;3.20;99.90;;;0.40;100.00;102398.88;4982161;28;100757;-63
2021/03/01 00:28:29;;;;;;;15.93;8.83;;;3.40;99.90;;;0.45;100.00;102391.72;4982198;28;100306;-63
2021/03/01 00:30:56;;;;;;;15.23;8.87;;;3.30;99.90;;;0.48;100.00;102386.41;4982008;28;100146;-63
2021/03/01 00:33:23;;;;;;;14.90;9.57;;;3.40;99.90;;;0.48;100.00;102394.28;4983855;27;99973;-63
2021/03/01 00:35:50;;;;;;;15.27;9.90;;;3.20;99.90;;;0.58;100.00;102395.75;5000381;27;104095;-63
2021/03/01 00:38:16;;;;;;;15.33;9.90;;;4.30;99.90;;;0.58;100.00;102382.59;4986572;28;101315;-63
2021/03/01 00:40:43;;;;;;;15.10;9.33;;;3.30;99.90;;;0.68;100.00;102376.13;4987208;28;100250;-63
2021/03/01 00:43:09;;;;;;;15.93;10.37;;;3.20;99.90;;;0.62;100.00;102383.34;4987718;28;100182;-62
2021/03/01 00:45:36;;;;;;;17.10;10.03;;;3.40;99.90;;;0.59;100.00;102379.06;4985072;28;101306;-64
2021/03/01 00:48:03;;;;;;;17.23;10.47;;;3.40;99.90;;;0.56;100.00;102370.34;4986025;28;100463;-62
2021/03/01 00:50:31;;;;;;;16.80;10.40;;;3.30;99.90;;;0.57;100.00;102374.72;4985690;28;100125;-63
2021/03/01 00:52:57;;;;;;;18.40;11.43;;;3.50;99.90;;;0.60;100.00;102379.91;4982960;28;100182;-61
2021/03/01 00:55:24;;;;;;;19.90;11.17;;;3.50;99.90;;;0.67;100.00;102389.34;4984957;28;100993;-61
2021/03/01 00:57:50;;;;;;;16.00;10.80;;;3.40;99.90;;;0.52;100.00;102381.88;4984856;28;100989;-62
2021/03/01 01:00:20;;;;;;;19.53;11.83;;;4.10;99.90;;;0.45;100.00;102391.72;4983512;28;100211;-62
2021/03/01 01:02:57;;;;;;;19.63;11.63;;;3.40;99.90;;;0.54;100.00;102383.56;4985477;28;100294;-64
2021/03/01 01:05:46;;;;;;;16.33;11.40;;;3.40;99.90;;;0.56;100.00;102386.16;4982847;28;100756;-61
2021/03/01 01:08:13;;;;;;;20.23;12.07;;;3.40;99.90;;;0.64;100.00;102389.44;4984780;28;100491;-60
2021/03/01 01:10:40;;;;;;;22.37;12.37;;;3.40;99.90;;;0.60;100.00;102388.69;4984809;28;100388;-63
2021/03/01 01:13:07;;;;;;;20.57;11.90;;;3.40;99.90;;;0.52;100.00;102390.66;4983560;28;100117;-63
2021/03/01 01:15:34;;;;;;;19.07;11.10;;;3.40;99.90;;;0.51;100.00;102383.66;4984409;28;101588;-60
2021/03/01 01:18:01;;;;;;;19.90;12.47;;;3.30;99.90;;;0.53;100.00;102384.47;4984388;28;101186;-61
2021/03/01 01:20:28;;;;;;;16.93;11.53;;;3.30;99.90;;;0.52;100.00;102374.84;4984645;28;100311;-63
2021/03/01 01:22:55;;;;;;;18.27;11.23;;;3.30;99.90;;;0.48;100.00;102364.44;4984566;28;99985;-64
2021/03/01 01:25:22;;;;;;;21.17;11.67;;;2.80;99.90;;;0.50;100.00;102362.63;4984711;28;100716;-64
2021/03/01 01:27:49;;;;;;;19.83;11.90;;;3.30;99.90;;;0.44;100.00;102363.66;4984871;28;100498;-61
2021/03/01 01:30:20;;;;;;;20.53;12.10;;;3.40;99.90;;;0.34;100.00;102355.16;4984888;28;100251;-64
2021/03/01 01:32:47;;;;;;;21.23;12.07;;;3.30;99.90;;;0.37;100.00;102362.13;4985158;28;100707;-63
2021/03/01 01:35:17;;;;;;;19.60;11.63;;;3.10;99.90;;;0.40;100.00;102356.75;4984348;28;100911;-63
2021/03/01 01:37:44;;;;;;;20.60;12.03;;;3.20;99.90;;;0.32;100.00;102369.28;4985083;28;100369;-62
2021/03/01 01:40:16;;;;;;;19.80;12.23;;;3.10;99.90;;;0.45;100.00;102360.13;4984582;28;100105;-63
2021/03/01 01:42:42;;;;;;;22.50;12.73;;;3.10;99.90;;;0.39;100.00;102356.78;4984697;28;100071;-63
2021/03/01 01:45:12;;;;;;;19.23;11.63;;;3.00;99.90;;;0.40;100.00;102354.13;4983338;27;101236;-65
2021/03/01 01:47:40;;;;;;;19.80;11.63;;;3.10;99.90;;;0.48;100.00;102352.16;4984465;28;100671;-61
2021/03/01 01:50:09;;;;;;;18.90;10.77;;;3.00;99.90;;;0.68;100.00;102348.94;4984354;28;100167;-63
2021/03/01 01:52:36;;;;;;;20.20;12.13;;;3.10;99.90;;;0.69;100.00;102353.28;4984330;28;99898;-63
2021/03/01 01:55:04;;;;;;;22.30;13.10;;;3.10;99.90;;;0.48;100.00;102346.88;4983958;28;101258;-64
2021/03/01 01:57:32;;;;;;;21.17;11.83;;;3.20;99.90;;;0.52;100.00;102351.13;4983682;28;101522;-61
2021/03/01 01:59:59;;;;;;;22.50;12.30;;;3.20;99.90;;;0.49;100.00;102345.97;4984669;28;100000;-64
2021/03/01 02:02:26;;;;;;;23.37;13.63;;;3.30;99.90;;;0.42;100.00;102349.69;4984693;28;101883;-63
2021/03/01 02:04:56;;;;;;;21.50;11.83;;;3.30;99.90;;;0.46;100.00;102342.56;4987118;28;101504;-62
2021/03/01 02:07:31;;;;;;;21.10;11.73;;;3.20;99.90;;;0.46;100.00;102338.16;4986890;28;99906;-61
2021/03/01 02:10:10;;;;;;;20.57;12.43;;;3.20;99.90;;;0.47;100.00;102339.03;4983817;28;100052;-64
2021/03/01 02:13:03;;;;;;;22.00;12.63;;;3.30;99.90;;;0.46;100.00;102340.78;4984478;28;99996;-63
2021/03/01 02:15:40;;;;;;;19.97;12.80;;;3.10;99.90;;;0.46;100.00;102338.16;4984241;28;101717;-63
2021/03/01 02:18:07;;;;;;;21.53;12.27;;;3.10;99.90;;;0.54;100.00;102341.41;4984443;28;100368;-61
2021/03/01 02:20:34;;;;;;;18.23;11.07;;;3.20;99.90;;;0.57;100.00;102337.84;4989699;28;100200;-62
2021/03/01 02:23:01;;;;;;;23.00;13.03;;;3.20;99.90;;;0.52;100.00;102348.50;4983507;28;100242;-62
2021/03/01 02:25:31;;;;;;;20.33;12.53;;;3.20;99.90;;;0.51;100.00;102348.53;4983203;28;101444;-62
2021/03/01 02:28:05;;;;;;;22.60;12.27;;;3.10;99.90;;;0.52;100.00;102348.50;4984933;28;100558;-62
2021/03/01 02:30:37;;;;;;;22.40;12.27;;;3.10;99.90;;;0.60;100.00;102343.03;4984357;28;100297;-62
2021/03/01 02:33:08;;;;;;;22.07;12.80;;;3.00;99.90;;;0.66;100.00;102343.69;4983912;28;100049;-61
2021/03/01 02:35:39;;;;;;;18.40;10.27;;;3.40;99.90;;;0.80;100.00;102347.69;4982892;28;100230;-61
2021/03/01 02:38:09;;;;;;;21.70;12.57;;;3.20;99.90;;;0.69;100.00;102346.25;4986503;28;100316;-62
2021/03/01 02:40:37;;;;;;;17.07;10.80;;;3.30;99.90;;;0.82;100.00;102346.75;4983641;28;100403;-61
2021/03/01 02:43:05;;;;;;;19.50;12.43;;;3.30;99.90;;;0.73;100.00;102341.75;4983899;28;100095;-63
2021/03/01 02:45:32;;;;;;;23.33;12.73;;;3.50;99.90;;;0.64;100.00;102340.25;4983303;28;101849;-63
2021/03/01 02:48:02;;;;;;;17.20;10.83;;;3.50;99.90;;;0.89;100.00;102345.66;4983540;28;101165;-61
2021/03/01 02:50:29;;;;;;;20.87;11.80;;;3.50;99.90;;;0.87;100.00;102343.97;4983104;28;100146;-63
2021/03/01 02:52:57;;;;;;;21.00;11.63;;;3.50;99.90;;;0.94;100.00;102343.75;4983866;28;100068;-60
2021/03/01 02:55:26;;;;;;;18.33;11.27;;;3.40;99.90;;;0.71;100.00;102349.72;4982412;28;100782;-62
2021/03/01 02:57:54;;;;;;;17.40;10.13;;;3.50;99.90;;;0.91;100.00;102349.09;4983700;28;100959;-63
2021/03/01 03:00:22;;;;;;;19.03;12.30;;;3.70;99.90;;;0.88;100.00;102354.47;4983363;28;100229;-63
2021/03/01 03:02:50;;;;;;;21.93;12.03;;;3.50;99.90;;;0.90;100.00;102357.91;4983088;28;100288;-62
2021/03/01 03:05:19;;;;;;;20.77;12.27;;;3.80;99.90;;;0.81;100.00;102358.19;4983109;28;100873;-62
2021/03/01 03:07:48;;;;;;;24.83;12.60;;;4.20;99.90;;;0.82;100.00;102353.78;4983464;28;99851;-63
2021/03/01 03:10:17;;;;;;;19.70;11.93;;;3.80;99.90;;;0.71;100.00;102364.66;4982909;28;100068;-60
2021/03/01 03:12:45;;;;;;;17.37;11.00;;;3.90;99.90;;;0.81;100.00;102352.94;4983007;28;100326;-62
2021/03/01 03:15:20;;;;;;;19.63;12.00;;;3.80;99.90;;;0.72;100.00;102366.38;4983116;28;100668;-60
2021/03/01 03:17:49;;;;;;;18.43;10.37;;;3.80;99.90;;;0.83;100.00;102361.66;4983219;28;100442;-63
2021/03/01 03:20:16;;;;;;;16.23;9.70;;;3.80;99.90;;;0.88;100.00;102366.78;4983389;28;101518;-61
2021/03/01 03:22:43;;;;;;;19.93;11.60;;;3.80;99.90;;;0.93;100.00;102370.16;4982447;28;100027;-62
2021/03/01 03:25:11;;;;;;;20.23;12.10;;;3.80;99.90;;;0.86;100.00;102361.56;4982228;28;101233;-60
2021/03/01 03:27:39;;;;;;;19.63;11.40;;;3.20;99.90;;;0.77;100.00;102360.97;4983218;28;100693;-61
2021/03/01 03:30:11;;;;;;;19.07;10.57;;;4.40;99.90;;;0.95;100.00;102363.94;4983008;28;100217;-63
2021/03/01 03:32:38;;;;;;;21.17;12.73;;;3.70;99.90;;;0.95;100.00;102356.03;4983046;28;100251;-60
2021/03/01 03:35:06;;;;;;;16.73;10.73;;;3.90;99.90;;;0.99;100.00;102357.63;4983060;28;101457;-60
2021/03/01 03:37:38;;;;;;;17.60;11.13;;;3.80;99.90;;;0.95;100.00;102361.28;4982817;28;99969;-63
2021/03/01 03:40:07;;;;;;;18.33;11.40;;;4.10;99.90;;;0.71;100.00;102357.63;4982885;28;100028;-61
2021/03/01 03:42:36;;;;;;;17.43;10.60;;;3.90;99.90;;;0.84;100.00;102358.13;4983293;28;99942;-62
2021/03/01 03:45:09;;;;;;;21.50;11.87;;;3.90;99.90;;;0.88;100.00;102357.09;4982616;28;101346;-62
2021/03/01 03:47:37;;;;;;;18.30;10.33;;;3.70;99.90;;;0.87;100.00;102358.00;4982619;28;100577;-62
2021/03/01 03:50:06;;;;;;;20.67;11.80;;;3.80;99.90;;;0.92;100.00;102360.50;4982165;28;100132;-59
2021/03/01 03:52:39;;;;;;;16.40;10.50;;;3.80;99.90;;;0.98;100.00;102349.78;4982674;28;100354;-62
2021/03/01 03:55:10;;;;;;;19.47;10.67;;;3.80;99.90;;;0.94;100.00;102356.06;4983050;28;101204;-59
2021/03/01 03:57:40;;;;;;;18.03;11.77;;;3.90;99.90;;;1.15;100.00;102360.66;4982316;28;100269;-63
2021/03/01 04:00:12;;;;;;;18.70;11.43;;;3.90;99.90;;;0.98;100.00;102365.63;4982872;28;100200;-63
2021/03/01 04:02:42;;;;;;;17.60;10.90;;;4.00;99.90;;;0.91;100.00;102367.56;4982752;28;100092;-63
2021/03/01 04:05:12;;;;;;;19.07;11.40;;;4.00;99.90;;;0.81;100.00;102374.00;4982534;28;100591;-60
2021/03/01 04:07:41;;;;;;;21.13;12.70;;;3.90;99.90;;;0.82;100.00;102367.84;4965081;28;101074;-59
2021/03/01 04:10:10;;;;;;;17.37;11.23;;;3.80;99.90;;;0.81;100.00;102370.50;4986279;28;99950;-61
2021/03/01 04:12:38;;;;;;;15.70;10.70;;;4.00;99.90;;;1.01;100.00;102370.78;4986852;28;99942;-64
2021/03/01 04:15:08;;;;;;;17.83;10.80;;;3.90;99.90;;;1.06;100.00;102369.72;4985469;28;101510;-63
2021/03/01 04:17:37;;;;;;;17.50;11.57;;;3.80;99.90;;;0.95;100.00;102363.06;4986421;28;100635;-62
2021/03/01 04:20:06;;;;;;;19.07;11.33;;;3.90;99.90;;;0.94;100.00;102361.34;4985863;28;100082;-62
2021/03/01 04:22:34;;;;;;;17.93;10.27;;;3.40;99.90;;;1.03;100.00;102363.69;4986018;28;99961;-62
2021/03/01 04:25:01;;;;;;;20.17;11.67;;;3.70;99.90;;;0.78;100.00;102363.56;4986451;28;101516;-62
2021/03/01 04:27:28;;;;;;;17.37;12.07;;;3.90;99.90;;;0.90;100.00;102357.06;4984756;28;101399;-62
2021/03/01 04:29:56;;;;;;;19.73;11.73;;;3.80;99.90;;;0.90;100.00;102363.19;4986873;28;100317;-63
2021/03/01 04:32:24;;;;;;;19.27;11.70;;;3.90;99.90;;;0.92;100.00;102355.25;4988262;28;100159;-62
2021/03/01 04:34:52;;;;;;;18.73;11.83;;;3.90;99.90;;;0.93;100.00;102359.59;4986149;28;101341;-63
2021/03/01 04:37:19;;;;;;;19.93;11.53;;;4.00;99.90;;;0.87;100.00;102357.13;4985081;28;100510;-61
2021/03/01 04:39:46;;;;;;;20.27;11.47;;;4.00;99.90;;;1.00;100.00;102350.59;4985233;28;100419;-64
2021/03/01 04:42:13;;;;;;;25.23;11.10;;;4.00;99.90;;;0.99;100.00;102343.63;4985603;28;100012;-63
2021/03/01 04:44:41;;;;;;;141.27;20.43;;;3.70;99.90;;;0.96;100.00;102346.34;4986011;28;101351;-64
2021/03/01 04:47:09;;;;;;;20.33;11.37;;;3.80;99.90;;;0.89;100.00;102347.41;4985003;28;101195;-61
2021/03/01 04:49:38;;;;;;;20.17;11.60;;;3.80;99.90;;;0.90;100.00;102341.25;4983680;28;99997;-61
2021/03/01 04:52:06;;;;;;;20.43;11.77;;;3.80;99.90;;;0.82;100.00;102340.63;4985495;28;99994;-63
2021/03/01 04:54:33;;;;;;;17.87;11.20;;;3.70;99.90;;;0.82;100.00;102346.75;4985320;28;101153;-62
2021/03/01 04:57:00;;;;;;;20.57;12.50;;;3.80;99.90;;;0.81;100.00;102347.66;4988516;28;101337;-62
2021/03/01 04:59:27;;;;;;;20.97;12.00;;;3.80;99.90;;;0.74;100.00;102340.84;4988814;28;100255;-63
2021/03/01 05:01:54;;;;;;;21.57;12.50;;;3.90;99.90;;;0.84;100.00;102344.06;4984611;28;99961;-62
2021/03/01 05:04:21;;;;;;;23.17;12.77;;;4.30;99.90;;;0.83;100.00;102337.06;4984440;28;101762;-61
2021/03/01 05:06:48;;;;;;;19.63;11.90;;;3.80;99.90;;;0.77;100.00;102345.16;4985305;28;101367;-64
2021/03/01 05:09:16;;;;;;;20.13;12.07;;;3.60;99.90;;;0.81;100.00;102341.53;4984836;28;100072;-63
2021/03/01 05:11:43;;;;;;;20.67;11.77;;;3.60;99.90;;;0.81;100.00;102341.53;4982973;28;100574;-61
2021/03/01 05:14:09;;;;;;;20.77;12.50;;;3.50;99.90;;;0.78;100.00;102342.47;4984995;28;101566;-62
2021/03/01 05:16:36;;;;;;;22.53;11.47;;;3.60;99.90;;;0.91;100.00;102341.19;4985324;28;101114;-63
2021/03/01 05:19:04;;;;;;;17.33;10.93;;;2.90;99.90;;;0.82;100.00;102335.34;4985178;28;100586;-63
2021/03/01 05:21:30;;;;;;;20.43;11.77;;;3.50;99.90;;;0.81;100.00;102342.38;4985093;28;100194;-62
2021/03/01 05:23:57;;;;;;;17.63;11.43;;;3.70;99.90;;;0.90;100.00;102341.25;4984803;28;101207;-62
2021/03/01 05:26:24;;;;;;;18.40;11.17;;;3.80;99.90;;;0.76;100.00;102343.41;4984873;28;100007;-61
2021/03/01 05:28:51;;;;;;;18.60;11.17;;;3.80;99.90;;;0.86;100.00;102348.41;4984873;28;100068;-61
2021/03/01 05:31:18;;;;;;;18.80;10.87;;;3.60;99.90;;;0.79;100.00;102343.34;4984934;28;100719;-61
2021/03/01 05:33:45;;;;;;;19.27;11.13;;;3.60;99.90;;;0.80;100.00;102340.66;4984678;28;100784;-64
2021/03/01 05:36:15;;;;;;;122.40;19.77;;;3.70;99.90;;;0.91;100.00;102345.59;4984647;28;100502;-63
2021/03/01 05:38:42;;;;;;;19.50;11.97;;;3.60;99.90;;;0.86;100.00;102337.84;4984381;28;100082;-61
2021/03/01 05:41:10;;;;;;;17.63;10.17;;;3.70;99.90;;;0.78;100.00;102344.25;4984963;28;100206;-61
2021/03/01 05:43:38;;;;;;;20.80;11.77;;;3.70;99.90;;;0.93;100.00;102341.16;4984976;28;100875;-63
2021/03/01 05:46:05;;;;;;;22.63;12.10;;;3.80;99.90;;;0.70;100.00;102347.13;4984280;28;100763;-61
2021/03/01 05:48:32;;;;;;;20.60;10.90;;;3.60;99.90;;;0.66;100.00;102342.84;4982857;28;100075;-62
2021/03/01 05:51:01;;;;;;;22.67;10.77;;;3.00;99.90;;;0.80;100.00;102345.94;4987626;28;100508;-63
2021/03/01 05:53:31;;;;;;;21.33;11.93;;;3.50;99.90;;;0.79;100.00;102348.59;4986334;28;101785;-62
2021/03/01 05:55:59;;;;;;;19.00;11.63;;;3.70;99.90;;;0.82;100.00;102349.38;4983592;28;100608;-64
2021/03/01 05:58:27;;;;;;;20.80;12.47;;;3.70;99.90;;;0.87;100.00;102359.78;4982270;28;100077;-64
2021/03/01 06:01:00;;;;;;;18.63;10.63;;;3.70;99.90;;;0.93;100.00;102352.56;4982295;28;100362;-64
2021/03/01 06:03:29;;;;;;;17.53;10.80;;;4.50;99.90;;;0.90;100.00;102346.50;4982085;28;100943;-64
2021/03/01 06:05:56;;;;;;;18.40;10.50;;;3.80;99.90;;;1.06;100.00;102353.91;4982240;28;100455;-63
2021/03/01 06:08:24;;;;;;;21.80;12.90;;;3.80;99.90;;;0.81;100.00;102350.28;4985506;28;100377;-63
2021/03/01 06:10:53;;;;;;;17.57;11.43;;;3.80;99.90;;;0.93;100.00;102354.34;4982228;28;100201;-64
2021/03/01 06:13:19;;;;;;;21.70;12.03;;;3.70;99.90;;;0.91;100.00;102357.00;4981887;27;100602;-64
2021/03/01 06:15:48;;;;;;;21.23;11.67;;;3.60;99.90;;;0.91;100.00;102357.00;4981881;28;100465;-63
2021/03/01 06:18:16;;;;;;;20.00;11.47;;;3.60;99.90;;;0.90;100.00;102360.56;4981889;28;100387;-61
2021/03/01 06:20:43;;;;;;;19.10;11.83;;;3.80;99.90;;;0.94;100.00;102366.59;4979775;28;100721;-61
2021/03/01 06:23:09;;;;;;;18.67;10.57;;;3.90;99.90;;;0.86;100.00;102369.47;4981505;28;101399;-60
2021/03/01 06:25:36;;;;;;;20.97;12.27;;;3.80;99.90;;;0.83;100.00;102368.69;4982793;28;100711;-61
2021/03/01 06:28:05;;;;;;;19.10;11.57;;;3.70;99.90;;;1.04;100.00;102370.69;4983827;28;100224;-61
2021/03/01 06:30:34;;;;;;;19.50;11.60;;;3.60;99.90;;;1.10;100.00;102381.06;4980449;27;99889;-62
2021/03/01 06:33:11;;;;;;;21.17;12.33;;;3.90;99.90;;;0.95;100.00;102376.25;4981319;28;100428;-62
2021/03/01 06:35:45;;;;;;;18.67;10.67;;;3.70;99.90;;;0.93;100.00;102378.91;4980943;28;100857;-63
2021/03/01 06:38:19;;;;;;;19.33;12.27;;;3.90;99.90;;;0.94;100.00;102370.09;4981326;28;100177;-62
2021/03/01 06:41:11;;;;;;;18.53;11.80;;;3.80;99.90;;;1.00;100.00;102380.44;4982227;28;100234;-61
2021/03/01 06:43:39;;;;;;;21.27;12.13;;;3.80;99.90;;;1.01;100.00;102382.19;4980785;28;100888;-62
2021/03/01 06:46:11;;;;;;;22.03;12.33;;;4.00;99.90;;;0.86;100.00;102382.66;4980140;28;100496;-62
2021/03/01 06:48:39;;;;;;;19.83;12.27;;;3.90;99.90;;;0.91;100.00;102386.00;4981617;28;100035;-62
2021/03/01 06:51:08;;;;;;;19.13;11.57;;;3.90;99.90;;;0.88;100.00;102388.72;4981107;28;100399;-62
2021/03/01 06:53:36;;;;;;;20.90;12.27;;;4.00;99.90;;;1.10;100.00;102385.47;4980739;28;101632;-61
2021/03/01 06:56:05;;;;;;;22.17;12.17;;;4.00;99.90;;;0.92;100.00;102379.81;4980768;28;100772;-61
2021/03/01 06:58:37;;;;;;;19.50;11.70;;;3.80;99.90;;;1.22;100.00;102390.38;4980464;28;100094;-63
2021/03/01 07:01:12;;;;;;;22.50;12.70;;;4.00;99.90;;;1.25;100.00;102390.25;4983649;28;100431;-62
2021/03/01 07:03:40;;;;;;;23.77;12.47;;;4.60;99.90;;;1.22;100.00;102393.00;4980637;28;99936;-61
2021/03/01 07:06:09;;;;;;;23.83;12.20;;;3.80;99.90;;;1.10;100.00;102393.38;4983383;28;100334;-63
2021/03/01 07:08:45;;;;;;;20.63;12.63;;;3.90;99.90;;;1.17;100.00;102394.91;4983007;28;100125;-63
2021/03/01 07:11:31;;;;;;;19.93;12.20;;;3.90;99.90;;;1.12;100.00;102394.16;4983647;28;100268;-62
2021/03/01 07:14:10;;;;;;;20.27;11.80;;;4.10;99.90;;;1.19;100.00;102401.00;4982668;28;101391;-62
2021/03/01 07:16:39;;;;;;;20.60;12.23;;;4.10;99.90;;;1.33;100.00;102407.59;4983775;27;100592;-63
2021/03/01 07:19:07;;;;;;;21.43;12.97;;;4.20;99.90;;;1.40;100.00;102416.16;4982989;27;100155;-63
2021/03/01 07:21:37;;;;;;;23.20;12.80;;;4.20;99.90;;;1.49;100.00;102415.00;4983614;27;100216;-62
2021/03/01 07:24:05;;;;;;;20.43;12.10;;;4.20;99.90;;;1.41;100.00;102416.09;4983246;27;100800;-64
2021/03/01 07:26:33;;;;;;;23.57;13.13;;;4.20;99.90;;;1.49;100.00;102421.13;4983644;27;100253;-61
2021/03/01 07:29:08;;;;;;;19.83;12.53;;;4.30;99.90;;;1.43;100.00;102424.84;4983962;28;100248;-61
2021/03/01 07:31:37;;;;;;;20.80;12.17;;;4.40;99.90;;;1.54;100.00;102415.72;4983677;28;100006;-63
2021/03/01 07:34:06;;;;;;;24.27;13.57;;;4.40;99.90;;;1.53;100.00;102420.13;4983337;27;101118;-63
2021/03/01 07:36:33;;;;;;;23.10;13.57;;;3.50;99.90;;;1.65;100.00;102418.88;4983198;28;100900;-62
2021/03/01 07:39:03;;;;;;;21.33;12.97;;;4.50;99.90;;;1.60;100.00;102419.03;4983217;27;100207;-62
2021/03/01 07:41:29;;;;;;;20.93;12.73;;;4.50;99.90;;;1.65;100.00;102419.75;4982892;28;100215;-62
2021/03/01 07:43:57;;;;;;;23.33;13.93;;;5.30;99.90;;;1.77;100.00;102418.47;4983461;28;101608;-63
2021/03/01 07:46:30;;;;;;;21.87;12.67;;;4.60;99.90;;;1.76;100.00;102427.31;4983292;27;100371;-64
2021/03/01 07:48:56;;;;;;;23.00;14.03;;;4.70;99.90;;;1.73;100.00;102427.44;4982799;27;99985;-62
2021/03/01 07:51:47;;;;;;;25.10;13.63;;;4.70;99.90;;;1.77;100.00;102431.69;4983840;27;100104;-63
2021/03/01 07:54:17;;;;;;;25.20;14.50;;;4.50;99.90;;;1.56;100.00;102437.66;4983434;27;101364;-64
2021/03/01 07:56:46;;;;;;;22.37;14.07;;;4.80;99.90;;;1.85;100.00;102428.81;4983493;27;100664;-63
2021/03/01 07:59:21;;;;;;;23.47;14.50;;;4.80;99.90;;;1.87;100.00;102437.50;4983033;27;100112;-64
2021/03/01 08:02:08;;;;;;;25.80;15.07;;;4.80;99.90;;;1.84;100.00;102435.84;4983174;27;99972;-62
2021/03/01 08:04:35;;;;;;;25.90;15.43;;;5.50;99.90;;;1.80;100.00;102437.72;4982932;27;101365;-63
2021/03/01 08:07:03;;;;;;;25.93;15.33;;;5.00;99.90;;;1.95;100.00;102440.78;4983060;27;100295;-64
2021/03/01 08:10:00;;;;;;;29.30;17.10;;;4.90;99.90;;;1.94;100.00;102439.06;4982766;28;100077;-63
2021/03/01 08:13:02;;;;;;;29.40;16.43;;;4.90;99.90;;;1.86;100.00;102431.38;4982759;27;100363;-62
2021/03/01 08:15:40;;;;;;;33.57;19.27;;;4.90;99.90;;;2.07;100.00;102435.09;4982681;27;100569;-61
2021/03/01 08:18:12;;;;;;;29.57;17.90;;;4.90;99.90;;;2.11;100.00;102439.34;4983113;28;101231;-64
2021/03/01 08:20:58;;;;;;;30.97;19.60;;;4.90;99.90;;;1.84;100.00;102432.34;4985683;28;100168;-68
2021/03/01 08:23:38;;;;;;;26.87;16.60;;;4.80;99.90;;;1.94;100.00;102424.09;4982797;27;99988;-64
2021/03/01 08:26:07;;;;;;;30.43;19.10;;;5.00;99.90;;;2.08;100.00;102424.47;4981333;28;101492;-65
2021/03/01 08:28:51;;;;;;;29.87;18.77;;;4.90;99.90;;;1.94;100.00;102428.50;4982766;27;100754;-63
2021/03/01 08:31:33;;;;;;;29.33;19.10;;;5.00;99.90;;;1.83;100.00;102434.13;4982904;27;100339;-64
2021/03/01 08:34:24;;;;;;;31.67;18.80;;;4.90;99.90;;;1.85;100.00;102436.72;4982160;28;100173;-64
2021/03/01 08:36:51;;;;;;;29.77;18.27;;;4.90;99.90;;;1.81;100.00;102433.31;4981705;27;101871;-63
2021/03/01 08:40:01;;;;;;;31.17;18.13;;;4.80;99.90;;;1.89;100.00;102433.06;4982268;27;100601;-62
2021/03/01 08:42:56;;;;;;;34.17;19.03;;;4.80;99.90;;;1.91;100.00;102432.09;4981926;27;100018;-64
2021/03/01 08:45:38;;;;;;;30.03;17.87;;;4.80;99.90;;;1.93;100.00;102426.75;4982248;27;100456;-63
2021/03/01 08:48:07;;;;;;;25.43;15.93;;;4.80;99.90;;;2.27;100.00;102437.03;4981632;27;102982;-63
2021/03/01 08:50:37;;;;;;;27.50;16.30;;;4.90;99.90;;;2.60;100.00;102425.28;4981969;27;100209;-63
2021/03/01 08:53:04;;;;;;;29.17;17.00;;;5.20;99.90;;;2.39;100.00;102437.47;4981545;27;100178;-63
2021/03/01 08:55:31;;;;;;;27.70;17.40;;;5.20;99.90;;;2.35;100.00;102435.03;4984695;27;100640;-64
2021/03/01 08:58:06;;;;;;;32.83;19.20;;;5.30;99.90;;;2.02;100.00;102437.00;4985891;27;100645;-63
2021/03/01 09:00:35;;;;;;;28.87;16.87;;;5.40;99.90;;;1.90;100.00;102438.28;4985244;28;100041;-62
2021/03/01 09:03:18;;;;;;;29.23;18.47;;;5.30;99.90;;;1.96;100.00;102445.16;4986180;28;99977;-64
2021/03/01 09:05:47;;;;;;;24.07;15.93;;;5.30;99.90;;;1.79;100.00;102443.91;4985455;27;100051;-63
2021/03/01 09:08:15;;;;;;;28.77;16.43;;;5.30;99.90;;;1.79;100.00;102445.69;4985093;28;101495;-63
2021/03/01 09:10:46;;;;;;;24.17;16.00;;;5.20;99.90;;;1.75;100.00;102455.47;4985490;27;101302;-65
2021/03/01 09:13:19;;;;;;;26.93;17.20;;;5.30;99.90;;;1.85;100.00;102447.28;4989972;27;99901;-64
2021/03/01 09:15:46;;;;;;;31.37;17.17;;;5.20;99.90;;;2.00;100.00;102449.41;4989548;27;100399;-65
2021/03/01 09:18:14;;;;;;;25.83;17.40;;;5.20;99.90;;;1.82;100.00;102448.25;4984666;27;101375;-65
2021/03/01 09:20:47;;;;;;;25.30;15.20;;;5.20;99.90;;;2.23;100.00;102459.19;4985115;27;100514;-65
2021/03/01 09:23:14;;;;;;;26.17;16.30;;;5.30;99.90;;;2.42;100.00;102455.00;4984847;27;99946;-64
2021/03/01 09:25:41;;;;;;;29.83;17.67;;;5.30;99.90;;;2.65;100.00;102454.19;4984610;27;100266;-63
2021/03/01 09:28:08;;;;;;;28.50;18.37;;;5.30;99.90;;;2.88;100.00;102457.72;4982017;27;100748;-63
2021/03/01 09:30:36;;;;;;;28.40;16.73;;;5.60;99.90;;;2.46;100.00;102444.28;4983352;28;100512;-65
2021/03/01 09:33:05;;;;;;;27.70;16.70;;;5.60;99.90;;;2.62;100.00;102446.38;4983937;28;100249;-62
2021/03/01 09:35:35;;;;;;;34.70;18.03;;;5.60;99.90;;;2.67;100.00;102447.09;4984384;28;100188;-63
2021/03/01 09:38:03;;;;;;;31.33;19.60;;;6.10;99.90;;;2.68;100.00;102441.75;4984768;28;101480;-65
2021/03/01 09:40:31;;;;;;;32.53;19.40;;;5.70;99.90;;;2.62;100.00;102446.38;4983790;28;101471;-61
2021/03/01 09:43:04;;;;;;;29.80;18.77;;;5.80;99.90;;;2.22;100.00;102450.44;4984029;28;100150;-65
2021/03/01 09:45:33;;;;;;;31.37;17.67;;;5.90;99.90;;;2.24;100.00;102443.28;4984792;28;100221;-63
2021/03/01 09:48:03;;;;;;;29.97;18.00;;;5.80;99.90;;;2.58;100.00;102440.34;4988766;28;100758;-65
2021/03/01 09:50:31;;;;;;;29.07;18.30;;;5.90;99.90;;;2.87;100.00;102448.06;4986783;28;100616;-63
2021/03/01 09:52:57;;;;;;;28.47;17.43;;;5.90;99.90;;;2.73;100.00;102460.94;4984747;28;100210;-65
2021/03/01 09:55:25;;;;;;;28.50;17.93;;;6.00;99.90;;;2.80;100.00;102449.22;4984927;28;100157;-62
2021/03/01 09:57:52;;;;;;;31.03;19.53;;;5.90;99.90;;;3.00;100.00;102447.63;4984775;28;101667;-66
2021/03/01 10:00:31;;;;;;;29.63;17.90;;;5.90;99.90;;;2.95;100.00;102434.59;4984764;28;101265;-62
2021/03/01 10:03:01;;;;;;;31.07;19.03;;;7.00;99.90;;;3.03;100.00;102436.94;4984509;28;100513;-63
2021/03/01 10:05:34;;;;;;;30.70;17.87;;;6.10;99.90;;;3.40;100.00;102437.25;4984683;28;100192;-62
2021/03/01 10:08:03;;;;;;;30.37;17.37;;;6.10;99.90;;;3.20;100.00;102434.53;4983741;28;101285;-64
2021/03/01 10:10:37;;;;;;;37.60;21.07;;;6.20;99.90;;;3.36;100.00;102440.94;4984472;28;100979;-64
2021/03/01 10:13:06;;;;;;;33.60;20.00;;;6.40;99.90;;;3.16;100.00;102439.06;4984123;28;99941;-62